createdAt,value
2017-12-30T00:01:51.079Z,6.08
2017-12-30T00:04:18.647Z,6.03
2017-12-30T00:06:46.189Z,5.92
2017-12-30T00:09:13.784Z,5.96
2017-12-30T00:11:41.332Z,5.94
2017-12-30T00:14:08.878Z,5.93
2017-12-30T00:16:36.485Z,5.92
2017-12-30T00:19:04.035Z,5.90
2017-12-30T00:21:31.592Z,5.94
2017-12-30T00:23:59.189Z,5.93
2017-12-30T00:26:26.751Z,5.89
2017-12-30T00:28:54.311Z,5.86
2017-12-30T00:31:21.935Z,5.89
2017-12-30T00:33:49.648Z,5.94
2017-12-30T00:36:17.223Z,5.84
2017-12-30T00:38:44.808Z,5.86
2017-12-30T00:41:12.360Z,5.82
2017-12-30T00:43:39.922Z,5.77
2017-12-30T00:46:07.594Z,5.72
2017-12-30T00:48:35.163Z,5.61
2017-12-30T00:51:02.728Z,5.53
2017-12-30T00:53:30.302Z,5.52
2017-12-30T00:55:57.843Z,5.57
2017-12-30T00:58:25.398Z,5.56
2017-12-30T01:00:52.997Z,5.54
2017-12-30T01:03:20.546Z,5.62
2017-12-30T01:05:48.094Z,5.58
2017-12-30T01:08:15.683Z,5.72
2017-12-30T01:10:43.253Z,5.73
2017-12-30T01:13:10.827Z,5.72
2017-12-30T01:15:38.416Z,5.68
2017-12-30T01:18:06.001Z,5.76
2017-12-30T01:20:33.576Z,5.75
2017-12-30T01:23:01.189Z,5.59
2017-12-30T01:25:28.755Z,5.56
2017-12-30T01:27:56.329Z,5.57
2017-12-30T01:30:23.944Z,5.64
2017-12-30T01:32:51.518Z,5.65
2017-12-30T01:35:19.098Z,5.65
2017-12-30T01:37:46.707Z,5.60
2017-12-30T01:40:14.290Z,5.64
2017-12-30T01:42:41.904Z,5.63
2017-12-30T01:45:09.499Z,5.64
2017-12-30T01:47:37.075Z,5.61
2017-12-30T01:50:04.667Z,5.71
2017-12-30T01:52:32.321Z,5.72
2017-12-30T01:54:59.884Z,5.65
2017-12-30T01:57:27.453Z,5.64
2017-12-30T01:59:55.226Z,5.61
2017-12-30T02:02:22.791Z,5.54
2017-12-30T02:04:50.350Z,5.52
2017-12-30T02:07:17.960Z,5.46
2017-12-30T02:09:45.547Z,5.50
2017-12-30T02:12:14.029Z,5.52
2017-12-30T02:14:41.657Z,5.57
2017-12-30T02:17:09.227Z,5.57
2017-12-30T02:19:36.805Z,5.65
2017-12-30T02:22:04.399Z,5.63
2017-12-30T02:24:31.984Z,5.53
2017-12-30T02:26:59.551Z,5.55
2017-12-30T02:29:27.202Z,5.60
2017-12-30T02:31:54.775Z,5.71
2017-12-30T02:34:22.361Z,5.72
2017-12-30T02:36:49.966Z,5.72
2017-12-30T02:39:17.525Z,5.70
2017-12-30T02:41:45.106Z,5.60
2017-12-30T02:44:12.738Z,5.66
2017-12-30T02:46:40.336Z,5.62
2017-12-30T02:49:07.939Z,5.57
2017-12-30T02:51:35.555Z,5.59
2017-12-30T02:54:03.120Z,5.48
2017-12-30T02:56:30.712Z,5.59
2017-12-30T02:58:58.316Z,5.62
2017-12-30T03:01:25.876Z,5.67
2017-12-30T03:03:53.446Z,5.60
2017-12-30T03:06:21.049Z,5.58
2017-12-30T03:08:48.744Z,5.62
2017-12-30T03:11:16.311Z,5.62
2017-12-30T03:13:43.925Z,5.57
2017-12-30T03:16:11.497Z,5.51
2017-12-30T03:18:39.087Z,5.62
2017-12-30T03:21:06.701Z,5.56
2017-12-30T03:23:34.256Z,5.53
2017-12-30T03:26:01.816Z,5.47
2017-12-30T03:28:29.430Z,5.37
2017-12-30T03:30:56.988Z,5.41
2017-12-30T03:33:25.080Z,5.39
2017-12-30T03:35:52.687Z,5.35
2017-12-30T03:38:20.266Z,5.34
2017-12-30T03:40:47.831Z,5.34
2017-12-30T03:43:15.448Z,5.38
2017-12-30T03:45:43.023Z,5.37
2017-12-30T03:48:10.587Z,5.31
2017-12-30T03:50:38.201Z,5.25
2017-12-30T03:53:05.769Z,5.18
2017-12-30T03:55:33.335Z,5.27
2017-12-30T03:58:00.941Z,5.24
2017-12-30T04:00:28.512Z,5.27
2017-12-30T04:02:56.079Z,5.34
2017-12-30T04:05:23.684Z,5.42
2017-12-30T04:07:51.256Z,5.38
2017-12-30T04:10:18.824Z,5.45
2017-12-30T04:12:46.437Z,5.47
2017-12-30T04:15:13.990Z,5.59
2017-12-30T04:17:41.562Z,5.45
2017-12-30T04:20:09.164Z,5.40
2017-12-30T04:22:36.741Z,5.43
2017-12-30T04:25:04.322Z,5.49
2017-12-30T04:27:31.927Z,5.45
2017-12-30T04:29:59.502Z,5.50
2017-12-30T04:32:27.071Z,5.47
2017-12-30T04:34:54.673Z,5.35
2017-12-30T04:37:22.308Z,5.28
2017-12-30T04:39:49.899Z,5.26
2017-12-30T04:42:17.515Z,5.22
2017-12-30T04:44:45.086Z,5.22
2017-12-30T04:47:12.660Z,5.24
2017-12-30T04:49:40.277Z,5.38
2017-12-30T04:52:07.864Z,5.36
2017-12-30T04:54:35.443Z,5.43
2017-12-30T04:57:03.051Z,5.53
2017-12-30T04:59:30.623Z,5.47
2017-12-30T05:01:58.210Z,5.44
2017-12-30T05:04:25.841Z,5.39
2017-12-30T05:06:53.413Z,5.26
2017-12-30T05:09:21.008Z,5.19
2017-12-30T05:11:48.615Z,5.24
2017-12-30T05:14:16.182Z,5.27
2017-12-30T05:16:43.768Z,5.30
2017-12-30T05:19:11.388Z,5.31
2017-12-30T05:21:38.946Z,5.26
2017-12-30T05:24:06.522Z,5.20
2017-12-30T05:26:34.127Z,5.22
2017-12-30T05:29:01.704Z,5.17
2017-12-30T05:31:29.258Z,5.06
2017-12-30T05:33:57.192Z,4.90
2017-12-30T05:36:24.773Z,4.80
2017-12-30T05:38:52.339Z,4.69
2017-12-30T05:41:19.991Z,4.60
2017-12-30T05:43:47.577Z,4.55
2017-12-30T05:46:15.160Z,4.47
2017-12-30T05:48:42.777Z,4.51
2017-12-30T05:51:10.358Z,4.48
2017-12-30T05:53:37.921Z,4.60
2017-12-30T05:56:05.532Z,4.61
2017-12-30T05:58:33.090Z,4.51
2017-12-30T06:01:00.650Z,4.54
2017-12-30T06:03:28.254Z,4.67
2017-12-30T06:05:55.820Z,4.54
2017-12-30T06:08:23.396Z,4.60
2017-12-30T06:10:51.020Z,4.63
2017-12-30T06:13:18.587Z,4.61
2017-12-30T06:15:46.164Z,4.62
2017-12-30T06:18:13.776Z,4.69
2017-12-30T06:20:41.360Z,4.68
2017-12-30T06:23:08.927Z,4.68
2017-12-30T06:25:36.540Z,4.82
2017-12-30T06:28:04.149Z,4.64
2017-12-30T06:30:32.130Z,4.50
2017-12-30T06:32:59.881Z,4.31
2017-12-30T06:35:27.458Z,4.42
2017-12-30T06:37:55.047Z,4.47
2017-12-30T06:40:22.667Z,4.47
2017-12-30T06:42:50.286Z,4.56
2017-12-30T06:45:17.930Z,4.59
2017-12-30T06:47:45.547Z,4.67
2017-12-30T06:50:13.161Z,4.75
2017-12-30T06:52:40.778Z,4.74
2017-12-30T06:55:08.365Z,4.75
2017-12-30T06:57:35.987Z,4.79
2017-12-30T07:00:03.791Z,4.88
2017-12-30T07:02:31.357Z,4.94
2017-12-30T07:04:59.008Z,4.94
2017-12-30T07:07:26.632Z,5.01
2017-12-30T07:09:54.224Z,5.06
2017-12-30T07:12:21.836Z,5.23
2017-12-30T07:14:49.418Z,5.27
2017-12-30T07:17:16.983Z,5.36
2017-12-30T07:19:44.585Z,5.39
2017-12-30T07:22:12.142Z,5.40
2017-12-30T07:24:39.722Z,5.43
2017-12-30T07:27:07.318Z,5.62
2017-12-30T07:29:34.898Z,5.56
2017-12-30T07:32:02.488Z,5.56
2017-12-30T07:34:30.216Z,5.43
2017-12-30T07:36:57.862Z,5.36
2017-12-30T07:39:25.534Z,5.29
2017-12-30T07:41:53.219Z,5.47
2017-12-30T07:44:20.956Z,5.62
2017-12-30T07:46:48.560Z,5.75
2017-12-30T07:49:16.261Z,5.99
2017-12-30T07:51:43.841Z,6.33
2017-12-30T07:54:11.423Z,6.35
2017-12-30T07:56:39.023Z,6.60
2017-12-30T07:59:06.761Z,6.99
2017-12-30T08:01:34.377Z,7.38
2017-12-30T08:04:02.210Z,7.67
2017-12-30T08:06:29.988Z,7.58
2017-12-30T08:08:57.681Z,7.63
2017-12-30T08:11:25.284Z,7.75
2017-12-30T08:13:52.851Z,7.77
2017-12-30T08:16:20.418Z,7.79
2017-12-30T08:18:48.055Z,7.84
2017-12-30T08:21:15.629Z,7.98
2017-12-30T08:23:43.204Z,8.15
2017-12-30T08:26:10.806Z,8.31
2017-12-30T08:28:38.365Z,8.40
2017-12-30T08:31:06.193Z,8.44
2017-12-30T08:33:33.849Z,8.41
2017-12-30T08:36:01.465Z,8.53
2017-12-30T08:38:29.073Z,8.64
2017-12-30T08:40:56.687Z,8.40
2017-12-30T08:43:24.271Z,8.24
2017-12-30T08:45:51.844Z,8.40
2017-12-30T08:48:19.474Z,8.39
2017-12-30T08:50:47.241Z,8.42
2017-12-30T08:53:14.803Z,8.41
2017-12-30T08:55:42.430Z,8.33
2017-12-30T08:58:10.039Z,8.34
2017-12-30T09:00:37.592Z,7.89
2017-12-30T09:03:05.263Z,7.73
2017-12-30T09:05:32.830Z,8.14
2017-12-30T09:08:00.400Z,8.42
2017-12-30T09:10:27.984Z,8.25
2017-12-30T09:12:55.549Z,7.99
2017-12-30T09:15:23.124Z,7.92
2017-12-30T09:17:50.723Z,8.05
2017-12-30T09:20:18.282Z,8.09
2017-12-30T09:22:45.839Z,8.09
2017-12-30T09:25:13.494Z,7.97
2017-12-30T09:27:41.078Z,8.17
2017-12-30T09:30:08.646Z,7.93
2017-12-30T09:32:36.257Z,7.97
2017-12-30T09:35:03.832Z,8.00
2017-12-30T09:37:31.422Z,8.08
2017-12-30T09:39:59.023Z,7.93
2017-12-30T09:42:26.610Z,7.89
2017-12-30T09:44:54.266Z,7.89
2017-12-30T09:47:21.873Z,7.99
2017-12-30T09:49:49.423Z,7.82
2017-12-30T09:52:17.037Z,7.65
2017-12-30T09:54:44.637Z,7.45
2017-12-30T09:57:12.214Z,7.36
2017-12-30T09:59:39.788Z,7.71
2017-12-30T10:02:07.401Z,8.05
2017-12-30T10:04:35.020Z,8.38
2017-12-30T10:07:02.600Z,8.51
2017-12-30T10:09:30.214Z,8.36
2017-12-30T10:11:57.785Z,8.38
2017-12-30T10:14:25.363Z,8.42
2017-12-30T10:16:52.967Z,8.70
2017-12-30T10:19:20.631Z,8.77
2017-12-30T10:21:48.191Z,8.78
2017-12-30T10:24:15.783Z,8.29
2017-12-30T10:26:43.357Z,7.79
2017-12-30T10:29:10.919Z,7.84
2017-12-30T10:31:38.561Z,7.73
2017-12-30T10:34:06.185Z,7.49
2017-12-30T10:36:33.755Z,7.66
2017-12-30T10:39:01.353Z,7.80
2017-12-30T10:41:28.920Z,7.89
2017-12-30T10:43:56.484Z,7.70
2017-12-30T10:46:24.297Z,7.48
2017-12-30T10:48:51.862Z,7.71
2017-12-30T10:51:19.439Z,7.66
2017-12-30T10:53:47.093Z,7.88
2017-12-30T10:56:14.659Z,7.70
2017-12-30T10:58:42.249Z,7.82
2017-12-30T11:01:09.961Z,7.82
2017-12-30T11:03:37.722Z,7.91
2017-12-30T11:06:05.300Z,7.89
2017-12-30T11:08:32.926Z,7.67
2017-12-30T11:11:00.479Z,7.46
2017-12-30T11:13:28.180Z,7.39
2017-12-30T11:15:55.782Z,7.46
2017-12-30T11:18:23.478Z,7.51
2017-12-30T11:20:51.031Z,7.55
2017-12-30T11:23:18.623Z,7.71
2017-12-30T11:25:46.177Z,7.63
2017-12-30T11:28:13.938Z,7.76
2017-12-30T11:30:41.525Z,7.87
2017-12-30T11:33:09.079Z,7.84
2017-12-30T11:35:36.644Z,7.77
2017-12-30T11:38:04.494Z,7.70
2017-12-30T11:40:32.262Z,7.70
2017-12-30T11:42:59.896Z,7.80
2017-12-30T11:45:27.483Z,7.85
2017-12-30T11:47:55.046Z,7.91
2017-12-30T11:50:22.616Z,8.01
2017-12-30T11:52:50.222Z,7.98
2017-12-30T11:55:17.794Z,7.97
2017-12-30T11:57:45.376Z,8.05
2017-12-30T12:00:12.983Z,8.09
2017-12-30T12:02:40.868Z,8.06
2017-12-30T12:05:08.425Z,8.04
2017-12-30T12:07:36.022Z,8.06
2017-12-30T12:10:03.619Z,8.18
2017-12-30T12:12:31.196Z,8.20
2017-12-30T12:14:58.815Z,8.22
2017-12-30T12:17:26.404Z,8.23
2017-12-30T12:19:53.971Z,8.27
2017-12-30T12:22:21.603Z,8.33
2017-12-30T12:24:49.198Z,8.27
2017-12-30T12:27:16.766Z,8.35
2017-12-30T12:29:44.367Z,8.38
2017-12-30T12:32:11.937Z,8.32
2017-12-30T12:34:39.514Z,8.29
2017-12-30T12:37:07.153Z,8.28
2017-12-30T12:39:34.718Z,8.28
2017-12-30T12:42:02.260Z,8.24
2017-12-30T12:44:30.028Z,8.34
2017-12-30T12:46:57.577Z,8.27
2017-12-30T12:49:25.122Z,8.17
2017-12-30T12:51:52.730Z,8.20
2017-12-30T12:54:20.282Z,7.90
2017-12-30T12:56:47.839Z,7.72
2017-12-30T12:59:15.505Z,7.73
2017-12-30T13:01:43.055Z,7.68
2017-12-30T13:04:10.590Z,7.82
2017-12-30T13:06:38.180Z,7.72
2017-12-30T13:09:05.752Z,7.57
2017-12-30T13:11:33.315Z,7.47
2017-12-30T13:14:00.896Z,7.50
2017-12-30T13:16:28.453Z,7.56
2017-12-30T13:18:56.058Z,7.57
2017-12-30T13:21:23.642Z,7.61
2017-12-30T13:23:51.211Z,7.48
2017-12-30T13:26:18.761Z,7.50
2017-12-30T13:28:46.396Z,7.40
2017-12-30T13:31:13.941Z,7.30
2017-12-30T13:33:41.498Z,7.38
2017-12-30T13:36:09.077Z,7.45
2017-12-30T13:38:36.641Z,7.46
2017-12-30T13:41:04.224Z,7.49
2017-12-30T13:43:31.813Z,7.47
2017-12-30T13:45:59.368Z,7.55
2017-12-30T13:48:26.965Z,7.56
2017-12-30T13:50:54.548Z,7.50
2017-12-30T13:53:22.100Z,7.54
2017-12-30T13:55:49.696Z,7.55
2017-12-30T13:58:17.266Z,7.57
2017-12-30T14:00:44.840Z,7.56
2017-12-30T14:03:12.443Z,7.51
2017-12-30T14:05:40.005Z,7.46
2017-12-30T14:08:08.440Z,7.46
2017-12-30T14:10:36.014Z,7.44
2017-12-30T14:13:03.584Z,7.35
2017-12-30T14:15:31.152Z,7.34
2017-12-30T14:17:58.754Z,7.28
2017-12-30T14:20:26.330Z,7.18
2017-12-30T14:22:53.893Z,7.13
2017-12-30T14:25:21.470Z,7.12
2017-12-30T14:27:49.062Z,7.10
2017-12-30T14:30:16.614Z,7.10
2017-12-30T14:32:44.243Z,7.07
2017-12-30T14:35:11.812Z,7.12
2017-12-30T14:37:39.385Z,7.22
2017-12-30T14:40:06.992Z,7.27
2017-12-30T14:42:34.552Z,7.22
2017-12-30T14:45:02.188Z,7.16
2017-12-30T14:47:29.795Z,7.08
2017-12-30T14:49:57.439Z,7.03
2017-12-30T14:52:25.006Z,7.01
2017-12-30T14:54:52.621Z,6.99
2017-12-30T14:57:20.252Z,6.89
2017-12-30T14:59:47.822Z,6.87
2017-12-30T15:02:15.506Z,6.79
2017-12-30T15:04:43.055Z,6.74
2017-12-30T15:07:10.617Z,6.61
2017-12-30T15:09:38.217Z,6.61
2017-12-30T15:12:05.784Z,6.61
2017-12-30T15:14:33.383Z,6.58
2017-12-30T15:17:01.073Z,6.60
2017-12-30T15:19:28.642Z,6.50
2017-12-30T15:21:56.216Z,6.48
2017-12-30T15:24:23.803Z,6.50
2017-12-30T15:26:51.356Z,6.40
2017-12-30T15:29:19.106Z,6.33
2017-12-30T15:31:46.772Z,6.35
2017-12-30T15:34:14.382Z,6.24
2017-12-30T15:36:42.658Z,6.18
2017-12-30T15:39:10.270Z,6.22
2017-12-30T15:41:38.038Z,6.04
2017-12-30T15:44:05.802Z,5.99
2017-12-30T15:46:33.435Z,5.95
2017-12-30T15:49:01.025Z,5.88
2017-12-30T15:51:29.224Z,5.78
2017-12-30T15:53:56.834Z,5.68
2017-12-30T15:56:24.415Z,5.70
2017-12-30T15:58:52.000Z,5.69
2017-12-30T16:01:19.583Z,5.72
2017-12-30T16:03:47.205Z,5.57
2017-12-30T16:06:14.769Z,5.59
2017-12-30T16:08:42.374Z,5.59
2017-12-30T16:11:09.930Z,5.54
2017-12-30T16:13:37.483Z,5.44
2017-12-30T16:16:05.104Z,5.34
2017-12-30T16:18:32.700Z,5.36
2017-12-30T16:21:00.330Z,5.27
2017-12-30T16:23:27.930Z,5.32
2017-12-30T16:25:55.483Z,5.12
2017-12-30T16:28:23.021Z,5.23
2017-12-30T16:30:50.623Z,5.33
2017-12-30T16:33:18.304Z,5.32
2017-12-30T16:35:45.851Z,5.24
2017-12-30T16:38:13.432Z,5.11
2017-12-30T16:40:40.996Z,5.15
2017-12-30T16:43:08.557Z,5.12
2017-12-30T16:45:36.138Z,5.04
2017-12-30T16:48:03.683Z,5.03
2017-12-30T16:50:31.258Z,5.00
2017-12-30T16:52:58.862Z,4.93
2017-12-30T16:55:26.462Z,4.80
2017-12-30T16:57:54.685Z,4.79
2017-12-30T17:00:22.307Z,4.85
2017-12-30T17:02:49.905Z,4.84
2017-12-30T17:05:17.481Z,4.86
2017-12-30T17:07:45.087Z,4.77
2017-12-30T17:10:12.655Z,4.81
2017-12-30T17:12:40.214Z,4.61
2017-12-30T17:15:07.812Z,4.50
2017-12-30T17:17:35.377Z,4.48
2017-12-30T17:20:02.976Z,4.42
2017-12-30T17:22:30.568Z,4.36
2017-12-30T17:24:58.153Z,4.23
2017-12-30T17:27:25.777Z,4.30
2017-12-30T17:29:53.393Z,4.16
2017-12-30T17:32:20.956Z,4.06
2017-12-30T17:34:48.503Z,3.98
2017-12-30T17:37:16.113Z,4.14
2017-12-30T17:39:43.696Z,4.31
2017-12-30T17:42:11.272Z,4.29
2017-12-30T17:44:38.876Z,4.25
2017-12-30T17:47:06.431Z,4.24
2017-12-30T17:49:34.010Z,4.33
2017-12-30T17:52:01.594Z,4.52
2017-12-30T17:54:29.165Z,4.45
2017-12-30T17:56:56.739Z,4.53
2017-12-30T17:59:24.407Z,4.57
2017-12-30T18:01:51.967Z,4.60
2017-12-30T18:04:19.528Z,4.60
2017-12-30T18:06:47.124Z,4.59
2017-12-30T18:09:14.681Z,4.51
2017-12-30T18:11:42.243Z,4.35
2017-12-30T18:14:09.859Z,4.14
2017-12-30T18:16:37.483Z,4.06
2017-12-30T18:19:05.044Z,4.02
2017-12-30T18:21:32.636Z,4.04
2017-12-30T18:24:00.197Z,4.04
2017-12-30T18:26:27.746Z,4.00
2017-12-30T18:28:55.406Z,3.96
2017-12-30T18:31:22.955Z,3.92
2017-12-30T18:33:50.527Z,3.84
2017-12-30T18:36:18.120Z,3.85
2017-12-30T18:38:45.670Z,3.79
2017-12-30T18:41:13.250Z,3.88
2017-12-30T18:43:40.863Z,3.86
2017-12-30T18:46:08.470Z,3.79
2017-12-30T18:48:36.026Z,3.79
2017-12-30T18:51:03.645Z,3.83
2017-12-30T18:53:31.222Z,3.86
2017-12-30T18:55:58.795Z,3.87
2017-12-30T18:58:26.404Z,3.91
2017-12-30T19:00:53.954Z,4.13
2017-12-30T19:03:22.443Z,4.40
2017-12-30T19:05:50.025Z,4.32
2017-12-30T19:08:17.682Z,4.22
2017-12-30T19:10:45.338Z,4.29
2017-12-30T19:13:13.000Z,4.38
2017-12-30T19:15:40.572Z,4.46
2017-12-30T19:18:08.130Z,4.48
2017-12-30T19:20:35.740Z,4.48
2017-12-30T19:23:03.307Z,4.57
2017-12-30T19:25:30.871Z,4.53
2017-12-30T19:27:58.477Z,4.45
2017-12-30T19:30:26.039Z,4.35
2017-12-30T19:32:53.601Z,4.24
2017-12-30T19:35:21.233Z,4.37
2017-12-30T19:37:48.808Z,4.39
2017-12-30T19:40:16.372Z,4.28
2017-12-30T19:42:43.971Z,4.22
2017-12-30T19:45:11.529Z,4.23
2017-12-30T19:47:39.106Z,4.02
2017-12-30T19:50:06.728Z,3.87
2017-12-30T19:52:34.310Z,3.78
2017-12-30T19:55:01.914Z,3.66
2017-12-30T19:57:29.515Z,3.53
2017-12-30T19:59:57.082Z,3.54
2017-12-30T20:02:24.634Z,3.52
2017-12-30T20:04:52.227Z,3.32
2017-12-30T20:07:19.794Z,3.17
2017-12-30T20:09:47.386Z,2.98
2017-12-30T20:12:14.990Z,3.11
2017-12-30T20:14:42.715Z,3.08
2017-12-30T20:17:10.341Z,2.90
2017-12-30T20:19:37.931Z,2.81
2017-12-30T20:22:05.498Z,2.64
2017-12-30T20:24:33.091Z,2.48
2017-12-30T20:27:00.695Z,2.44
2017-12-30T20:29:28.299Z,2.45
2017-12-30T20:31:55.849Z,2.43
2017-12-30T20:34:23.438Z,2.26
2017-12-30T20:36:50.985Z,2.10
2017-12-30T20:39:18.543Z,2.24
2017-12-30T20:41:46.190Z,2.19
2017-12-30T20:44:13.780Z,2.05
2017-12-30T20:46:41.518Z,2.00
2017-12-30T20:49:09.123Z,1.95
2017-12-30T20:51:36.706Z,1.89
2017-12-30T20:54:04.302Z,1.79
2017-12-30T20:56:31.906Z,1.81
2017-12-30T20:58:59.525Z,1.83
2017-12-30T21:01:27.148Z,1.74
2017-12-30T21:03:54.753Z,1.58
2017-12-30T21:06:22.342Z,1.74
2017-12-30T21:08:49.906Z,1.69
2017-12-30T21:11:17.495Z,1.52
2017-12-30T21:13:45.057Z,1.31
2017-12-30T21:16:12.624Z,1.17
2017-12-30T21:18:40.236Z,1.17
2017-12-30T21:21:07.824Z,1.38
2017-12-30T21:23:35.387Z,1.33
2017-12-30T21:26:03.059Z,1.24
2017-12-30T21:28:30.621Z,1.16
2017-12-30T21:30:58.195Z,1.32
2017-12-30T21:33:25.783Z,1.44
2017-12-30T21:35:53.339Z,1.39
2017-12-30T21:38:20.974Z,1.42
2017-12-30T21:40:48.567Z,1.40
2017-12-30T21:43:16.137Z,1.48
2017-12-30T21:45:43.703Z,1.61
2017-12-30T21:48:11.299Z,1.55
2017-12-30T21:50:38.871Z,1.43
2017-12-30T21:53:06.435Z,1.48
2017-12-30T21:55:34.048Z,1.41
2017-12-30T21:58:01.609Z,1.30
2017-12-30T22:00:29.193Z,1.24
2017-12-30T22:02:56.818Z,1.32
2017-12-30T22:05:24.392Z,1.46
2017-12-30T22:07:51.965Z,1.46
2017-12-30T22:10:19.564Z,1.52
2017-12-30T22:12:47.133Z,1.36
2017-12-30T22:15:14.697Z,1.35
2017-12-30T22:17:42.370Z,1.35
2017-12-30T22:20:09.948Z,1.30
2017-12-30T22:22:37.509Z,1.20
2017-12-30T22:25:05.111Z,1.30
2017-12-30T22:27:32.691Z,1.19
2017-12-30T22:30:00.314Z,1.16
2017-12-30T22:32:27.911Z,1.23
2017-12-30T22:34:55.472Z,1.12
2017-12-30T22:37:23.040Z,1.19
2017-12-30T22:39:50.692Z,1.19
2017-12-30T22:42:18.270Z,1.26
2017-12-30T22:44:45.848Z,1.25
2017-12-30T22:47:13.448Z,1.34
2017-12-30T22:49:41.051Z,1.36
2017-12-30T22:52:08.652Z,1.39
2017-12-30T22:54:36.259Z,1.30
2017-12-30T22:57:03.811Z,1.28
2017-12-30T22:59:31.363Z,1.40
2017-12-30T23:01:59.032Z,1.38
2017-12-30T23:04:26.606Z,1.42
2017-12-30T23:06:54.207Z,1.41
2017-12-30T23:09:21.851Z,1.49
2017-12-30T23:11:49.441Z,1.54
2017-12-30T23:14:17.039Z,1.53
2017-12-30T23:16:44.649Z,1.55
2017-12-30T23:19:12.211Z,1.61
2017-12-30T23:21:39.823Z,1.61
2017-12-30T23:24:07.453Z,1.60
2017-12-30T23:26:35.041Z,1.56
2017-12-30T23:29:02.621Z,1.53
2017-12-30T23:31:30.222Z,1.41
2017-12-30T23:33:57.788Z,1.32
2017-12-30T23:36:25.494Z,1.16
2017-12-30T23:38:53.112Z,1.26
2017-12-30T23:41:20.707Z,1.18
2017-12-30T23:43:48.265Z,1.03
2017-12-30T23:46:15.861Z,1.18
2017-12-30T23:48:43.419Z,1.18
2017-12-30T23:51:10.983Z,1.11
2017-12-30T23:53:38.581Z,1.00
2017-12-30T23:56:06.179Z,1.16
2017-12-30T23:58:33.751Z,1.24
